Elbow Lake, MN

9:23 PM CST on December 09, 2016 (GMT -0600)
Elbow Lake

Weather History for KY63 - February, 2014

Change the Weather History Date:

Friday, February 21, 2014

  Actual Average (KFFM) Record (KFFM)
Temperature  
Mean Temperature 6 °F -  
Max Temperature 12 °F 28 °F 48 °F (1961)
Min Temperature -1 °F 8 °F -19 °F (1968)
Degree Days  
Heating Degree Days 60    
Moisture  
Dew Point 0 °F    
Average Humidity 80    
Maximum Humidity 86    
Minimum Humidity 75    
Precipitation  
Precipitation 0.00 in - - ()
Sea Level Pressure  
Sea Level Pressure 29.64 in    
Wind  
Wind Speed 22 mph (NW)    
Max Wind Speed 31 mph    
Max Gust Speed 38 mph    
Visibility 7 miles    
Events      
Averages and records for this station are not official NWS values.
T = Trace of Precipitation, MM = Missing Value Source: NWS Daily Summary

Daily Weather History Graph

Daily Weather History Graph

Search for Another Location

Airport or City:

Trip Planner

Search our weather history database for the weather conditions in past years. The results will help you decide how hot, cold, wet, or windy it might be!

Date:

Astronomy

Feb. 21, 2014 Rise Set
Actual Time 7:16 AM CST 5:59 PM CST
Civil Twilight 6:46 AM CST 6:29 PM CST
Nautical Twilight 6:11 AM CST 7:04 PM CST
Astronomical Twilight 5:37 AM CST 7:38 PM CST
Moon 12:14 AM CST (2/21) 10:19 AM CST (2/21)
Length of Visible Light 11h 43m
Length of Day
10h 42m
Waning Gibbous, 60% of the Moon is Illuminated
Feb 21
Waning Gibbous
Feb 22
Last Quarter
Mar 1
New
Mar 8
First Quarter
Mar 16
Full

Hourly Weather History & Observations

Time (CST) Temp. Windchill Dew Point Humidity Pressure Visibility Wind Dir Wind Speed Gust Speed Precip Events Conditions
12:15 AM 7.2 °F -15.4 °F 3.0 °F 83% 29.55 in 7.0 mi NW 27.6 mph 35.7 mph N/A   Overcast
12:35 AM 6.8 °F -16.9 °F 2.7 °F 83% 29.54 in 3.0 mi NW 31.1 mph 38.0 mph N/A   Haze
12:54 AM 6.3 °F -15.8 °F 2.5 °F 84% 29.54 in 2.5 mi NNW 25.3 mph 34.5 mph N/A   Overcast
1:15 AM 5.5 °F -17.2 °F 1.4 °F 83% 29.55 in 2.5 mi NW 26.5 mph 34.5 mph N/A   Overcast
1:35 AM 5.0 °F -18.3 °F 1.0 °F 84% 29.54 in 3.0 mi NW 27.6 mph 36.8 mph N/A   Mostly Cloudy
1:54 AM 4.6 °F -16.7 °F 1.0 °F 85% 29.54 in 2.0 mi NW 21.9 mph 35.7 mph N/A   Overcast
2:15 AM 4.5 °F -17.8 °F 0.5 °F 84% 29.54 in 2.0 mi NW 24.2 mph 34.5 mph N/A   Overcast
2:35 AM 4.1 °F -19.1 °F 0.7 °F 86% 29.54 in 1.8 mi NW 26.5 mph 33.4 mph N/A   Overcast
2:54 AM 3.7 °F -19.6 °F -0.4 °F 83% 29.54 in 2.0 mi NW 26.5 mph 33.4 mph N/A   Overcast
3:15 AM 3.2 °F -21.5 °F -0.6 °F 84% 29.54 in 2.0 mi NW 29.9 mph 34.5 mph N/A   Overcast
3:34 AM 2.8 °F -19.5 °F -1.1 °F 84% 29.54 in 2.0 mi NW 23.0 mph 28.8 mph N/A   Overcast
3:55 AM 2.1 °F -20.5 °F -1.8 °F 83% 29.54 in 3.0 mi NW 23.0 mph 31.1 mph N/A   Overcast
4:15 AM 1.8 °F -21.4 °F -2.4 °F 83% 29.55 in 5.0 mi NW 24.2 mph 33.4 mph N/A   Haze
4:34 AM 1.4 °F -21.4 °F -2.7 °F 83% 29.55 in 5.0 mi NW 23.0 mph 29.9 mph N/A   Mostly Cloudy
4:55 AM 1.0 °F -21.9 °F -3.1 °F 83% 29.57 in 5.0 mi NW 23.0 mph - N/A   Overcast
5:15 AM 0.5 °F -22.2 °F -3.6 °F 83% 29.57 in 4.0 mi NW 21.9 mph 28.8 mph N/A   Overcast
5:34 AM 0.1 °F -22.6 °F -4.0 °F 83% 29.57 in 7.0 mi NW 21.9 mph - N/A   Mostly Cloudy
5:55 AM -0.4 °F -22.8 °F -4.4 °F 83% 29.57 in 10.0 mi NW 20.7 mph 27.6 mph N/A   Clear
6:15 AM -0.8 °F -23.3 °F -4.9 °F 83% 29.57 in 10.0 mi NW 20.7 mph 27.6 mph N/A   Clear
6:34 AM -1.3 °F -23.5 °F -5.3 °F 83% 29.58 in 10.0 mi NW 19.6 mph 26.5 mph N/A   Scattered Clouds
6:55 AM -1.3 °F -24.5 °F -5.8 °F 81% 29.58 in 10.0 mi NW 21.9 mph - N/A   Clear
7:15 AM -1.3 °F -23.5 °F -5.8 °F 81% 29.59 in 10.0 mi WNW 19.6 mph 26.5 mph N/A   Clear
7:34 AM -1.5 °F -24.3 °F -5.8 °F 82% 29.59 in 10.0 mi NW 20.7 mph 25.3 mph N/A   Clear
7:55 AM -1.3 °F -23.5 °F -6.0 °F 81% 29.60 in 10.0 mi NW 19.6 mph 27.6 mph N/A   Clear
8:14 AM -0.8 °F -23.3 °F -5.8 °F 79% 29.60 in 10.0 mi NW 20.7 mph 29.9 mph N/A   Clear
8:35 AM -0.2 °F -22.6 °F -5.3 °F 79% 29.60 in 10.0 mi NW 20.7 mph 26.5 mph N/A   Clear
8:55 AM 0.5 °F -22.6 °F -4.5 °F 79% 29.60 in 10.0 mi NW 23.0 mph 28.8 mph N/A   Clear
9:14 AM 0.9 °F -20.7 °F -4.2 °F 79% 29.60 in 10.0 mi WNW 19.6 mph 26.5 mph N/A   Scattered Clouds
9:35 AM 1.0 °F -20.9 °F -4.0 °F 79% 29.61 in 10.0 mi NW 20.7 mph 29.9 mph N/A   Mostly Cloudy
9:55 AM 1.4 °F -22.3 °F -4.0 °F 78% 29.62 in 10.0 mi NW 25.3 mph 28.8 mph N/A   Mostly Cloudy
10:14 AM 2.1 °F -21.4 °F -3.5 °F 77% 29.62 in 7.0 mi NW 25.3 mph 29.9 mph N/A   Scattered Clouds
10:35 AM 2.7 °F -21.1 °F -3.1 °F 77% 29.62 in 10.0 mi NW 26.5 mph 32.2 mph N/A   Scattered Clouds
10:55 AM 3.0 °F -20.6 °F -2.9 °F 76% 29.62 in 5.0 mi NW 26.5 mph 32.2 mph N/A   Haze
11:14 AM 3.7 °F -18.8 °F -2.4 °F 76% 29.62 in 5.0 mi NW 24.2 mph 32.2 mph N/A   Haze
11:35 AM 4.6 °F -16.2 °F -1.1 °F 77% 29.62 in 5.0 mi WNW 20.7 mph 29.9 mph N/A   Haze
11:55 AM 5.2 °F -16.9 °F -0.6 °F 77% 29.63 in 7.0 mi NW 24.2 mph - N/A   Mostly Cloudy
12:15 PM 6.3 °F -15.0 °F 0.5 °F 77% 29.63 in 5.0 mi NW 23.0 mph 27.6 mph N/A   Haze
12:35 PM 7.0 °F -14.9 °F 1.8 °F 79% 29.62 in 5.0 mi NW 25.3 mph 28.8 mph N/A   Haze
12:55 PM 8.1 °F -12.6 °F 2.8 °F 79% 29.62 in 3.0 mi NW 23.0 mph 32.2 mph N/A   Haze
1:15 PM 8.6 °F -11.0 °F 3.7 °F 81% 29.62 in 2.0 mi WNW 20.7 mph 28.8 mph N/A   Haze
1:35 PM 9.1 °F -11.2 °F 3.6 °F 78% 29.63 in 2.0 mi NW 23.0 mph - N/A   Haze
1:54 PM 9.7 °F -10.0 °F 4.5 °F 79% 29.63 in 3.0 mi NW 21.9 mph 31.1 mph N/A   Haze
2:15 PM 10.2 °F -9.7 °F 4.5 °F 78% 29.64 in 4.0 mi NW 23.0 mph 28.8 mph N/A   Haze
2:35 PM 10.4 °F -8.6 °F 4.5 °F 77% 29.65 in 10.0 mi NW 20.7 mph - N/A   Mostly Cloudy
2:54 PM 11.3 °F -7.9 °F 4.8 °F 75% 29.65 in 7.0 mi NW 21.9 mph 28.8 mph N/A   Mostly Cloudy
3:15 PM 11.3 °F -6.5 °F 5.4 °F 77% 29.66 in 7.0 mi WNW 18.4 mph 28.8 mph N/A   Mostly Cloudy
3:35 PM 11.7 °F -6.0 °F 5.9 °F 78% 29.67 in 10.0 mi WNW 18.4 mph 26.5 mph N/A   Scattered Clouds
3:55 PM 11.3 °F -6.5 °F 5.9 °F 79% 29.67 in 10.0 mi NW 18.4 mph 25.3 mph N/A   Scattered Clouds
4:15 PM 11.8 °F -5.8 °F 6.1 °F 78% 29.67 in 10.0 mi WNW 18.4 mph 25.3 mph N/A   Clear
4:35 PM 11.7 °F -5.0 °F 5.9 °F 78% 29.68 in 10.0 mi WNW 16.1 mph - N/A   Clear
4:55 PM 12.0 °F -4.0 °F 6.1 °F 77% 29.69 in 10.0 mi NW 15.0 mph - N/A   Clear
5:15 PM 11.3 °F -5.5 °F 5.9 °F 79% 29.69 in 10.0 mi NW 16.1 mph - N/A   Clear
5:35 PM 10.4 °F -4.8 °F 5.5 °F 81% 29.69 in 10.0 mi NW 12.7 mph - N/A   Clear
5:55 PM 10.2 °F -5.7 °F 5.2 °F 80% 29.70 in 10.0 mi NW 13.8 mph - N/A   Clear
6:15 PM 9.7 °F -5.7 °F 4.8 °F 81% 29.71 in 10.0 mi WNW 12.7 mph - N/A   Clear
6:34 PM 8.6 °F -6.3 °F 4.1 °F 82% 29.72 in 10.0 mi WNW 11.5 mph - N/A   Clear
6:55 PM 8.6 °F -7.7 °F 4.1 °F 82% 29.72 in 10.0 mi WNW 13.8 mph - N/A   Clear
7:15 PM 8.6 °F -7.7 °F 3.9 °F 81% 29.73 in 10.0 mi WNW 13.8 mph - N/A   Clear
7:35 PM 7.9 °F -8.0 °F 3.2 °F 81% 29.74 in 10.0 mi WNW 12.7 mph - N/A   Clear
7:55 PM 7.7 °F -7.4 °F 2.7 °F 80% 29.74 in 10.0 mi WNW 11.5 mph - N/A   Clear
8:15 PM 6.4 °F -9.0 °F 2.1 °F 82% 29.75 in 10.0 mi WNW 11.5 mph - N/A   Clear
8:35 PM 7.0 °F -9.8 °F 2.3 °F 81% 29.75 in 10.0 mi WNW 13.8 mph 17.3 mph N/A   Clear
8:55 PM 6.3 °F -8.4 °F 1.6 °F 81% 29.76 in 10.0 mi WNW 10.4 mph - N/A   Clear
9:15 PM 6.8 °F -10.0 °F 1.8 °F 80% 29.76 in 10.0 mi WNW 13.8 mph 21.9 mph N/A   Clear
9:35 PM 5.5 °F -10.2 °F 0.9 °F 81% 29.77 in 10.0 mi WNW 11.5 mph - N/A   Clear
9:55 PM 5.0 °F -12.3 °F 0.5 °F 82% 29.77 in 10.0 mi WNW 13.8 mph - N/A   Clear
10:15 PM 5.0 °F -10.8 °F 0.1 °F 80% 29.77 in 10.0 mi WNW 11.5 mph 18.4 mph N/A   Clear
10:35 PM 4.3 °F -11.7 °F -0.4 °F 81% 29.78 in 10.0 mi WNW 11.5 mph - N/A   Clear
10:55 PM 2.5 °F -13.1 °F -2.0 °F 81% 29.79 in 10.0 mi WNW 10.4 mph - N/A   Clear
11:14 PM 3.0 °F -12.5 °F -1.7 °F 81% 29.79 in 10.0 mi WNW 10.4 mph - N/A   Clear
11:35 PM 3.0 °F -13.3 °F -2.2 °F 79% 29.80 in 10.0 mi NW 11.5 mph - N/A   Clear
11:55 PM 2.7 °F -13.8 °F -2.2 °F 80% 29.81 in 10.0 mi NW 11.5 mph - N/A   Clear